sensor_id;sensor_type;location;lat;lon;timestamp;pressure;altitude;pressure_sealevel;temperature
62180;BMP280;48172;53.374;10.722;2022-12-18T00:03:46;103092.69;;;20.19
62180;BMP280;48172;53.374;10.722;2022-12-18T00:06:14;103088.00;;;20.13
62180;BMP280;48172;53.374;10.722;2022-12-18T00:08:41;103094.25;;;20.06
62180;BMP280;48172;53.374;10.722;2022-12-18T00:11:11;103098.50;;;20.04
62180;BMP280;48172;53.374;10.722;2022-12-18T00:13:38;103091.56;;;19.99
62180;BMP280;48172;53.374;10.722;2022-12-18T00:16:07;103088.06;;;19.95
62180;BMP280;48172;53.374;10.722;2022-12-18T00:18:35;103091.56;;;19.88
62180;BMP280;48172;53.374;10.722;2022-12-18T00:21:04;103097.00;;;19.85
62180;BMP280;48172;53.374;10.722;2022-12-18T00:23:32;103102.03;;;19.79
62180;BMP280;48172;53.374;10.722;2022-12-18T00:26:00;103102.03;;;19.76
62180;BMP280;48172;53.374;10.722;2022-12-18T00:28:26;103114.44;;;19.73
62180;BMP280;48172;53.374;10.722;2022-12-18T00:31:03;103116.03;;;19.67
62180;BMP280;48172;53.374;10.722;2022-12-18T00:33:31;103105.53;;;19.62
62180;BMP280;48172;53.374;10.722;2022-12-18T00:36:01;103103.19;;;19.60
62180;BMP280;48172;53.374;10.722;2022-12-18T00:38:28;103100.13;;;19.58
62180;BMP280;48172;53.374;10.722;2022-12-18T00:40:55;103098.56;;;19.54
62180;BMP280;48172;53.374;10.722;2022-12-18T00:43:22;103099.75;;;19.49
62180;BMP280;48172;53.374;10.722;2022-12-18T00:45:48;103103.22;;;19.46
62180;BMP280;48172;53.374;10.722;2022-12-18T00:48:15;103107.09;;;19.45
62180;BMP280;48172;53.374;10.722;2022-12-18T00:50:42;103112.50;;;19.42
62180;BMP280;48172;53.374;10.722;2022-12-18T00:53:08;103117.13;;;19.38
62180;BMP280;48172;53.374;10.722;2022-12-18T00:55:39;103121.81;;;19.37
62180;BMP280;48172;53.374;10.722;2022-12-18T00:58:06;103117.53;;;19.33
62180;BMP280;48172;53.374;10.722;2022-12-18T01:00:32;103121.00;;;19.29
62180;BMP280;48172;53.374;10.722;2022-12-18T01:02:59;103123.72;;;19.29
62180;BMP280;48172;53.374;10.722;2022-12-18T01:05:26;103129.50;;;19.24
62180;BMP280;48172;53.374;10.722;2022-12-18T01:07:54;103131.84;;;19.22
62180;BMP280;48172;53.374;10.722;2022-12-18T01:10:21;103135.69;;;19.18
62180;BMP280;48172;53.374;10.722;2022-12-18T01:12:47;103142.28;;;19.17
62180;BMP280;48172;53.374;10.722;2022-12-18T01:15:14;103144.22;;;19.13
62180;BMP280;48172;53.374;10.722;2022-12-18T01:17:41;103143.81;;;19.11
62180;BMP280;48172;53.374;10.722;2022-12-18T01:20:10;103143.81;;;19.07
62180;BMP280;48172;53.374;10.722;2022-12-18T01:22:37;103136.06;;;19.06
62180;BMP280;48172;53.374;10.722;2022-12-18T01:25:04;103132.16;;;18.99
62180;BMP280;48172;53.374;10.722;2022-12-18T01:27:33;103130.25;;;18.96
62180;BMP280;48172;53.374;10.722;2022-12-18T01:29:59;103133.31;;;18.95
62180;BMP280;48172;53.374;10.722;2022-12-18T01:32:26;103142.97;;;18.92
62180;BMP280;48172;53.374;10.722;2022-12-18T01:34:52;103137.94;;;18.91
62180;BMP280;48172;53.374;10.722;2022-12-18T01:37:19;103140.25;;;18.85
62180;BMP280;48172;53.374;10.722;2022-12-18T01:39:45;103133.28;;;18.84
62180;BMP280;48172;53.374;10.722;2022-12-18T01:42:13;103131.72;;;18.83
62180;BMP280;48172;53.374;10.722;2022-12-18T01:47:39;103132.47;;;18.77
62180;BMP280;48172;53.374;10.722;2022-12-18T01:53:10;103141.75;;;18.69
62180;BMP280;48172;53.374;10.722;2022-12-18T01:55:42;103130.50;;;18.66
62180;BMP280;48172;53.374;10.722;2022-12-18T01:58:16;103120.03;;;18.65
62180;BMP280;48172;53.374;10.722;2022-12-18T02:00:43;103113.44;;;18.59
62180;BMP280;48172;53.374;10.722;2022-12-18T02:03:10;103124.63;;;18.57
62180;BMP280;48172;53.374;10.722;2022-12-18T02:06:06;103127.72;;;18.56
62180;BMP280;48172;53.374;10.722;2022-12-18T02:14:35;103121.50;;;18.48
62180;BMP280;48172;53.374;10.722;2022-12-18T02:17:14;103124.19;;;18.45
62180;BMP280;48172;53.374;10.722;2022-12-18T02:22:29;103121.47;;;18.41
62180;BMP280;48172;53.374;10.722;2022-12-18T02:27:46;103134.56;;;18.36
62180;BMP280;48172;53.374;10.722;2022-12-18T02:30:13;103142.66;;;18.32
62180;BMP280;48172;53.374;10.722;2022-12-18T02:32:43;103146.56;;;18.31
62180;BMP280;48172;53.374;10.722;2022-12-18T02:35:14;103154.25;;;18.29
62180;BMP280;48172;53.374;10.722;2022-12-18T02:37:43;103149.97;;;18.24
62180;BMP280;48172;53.374;10.722;2022-12-18T02:40:12;103151.13;;;18.23
62180;BMP280;48172;53.374;10.722;2022-12-18T02:42:40;103157.69;;;18.22
62180;BMP280;48172;53.374;10.722;2022-12-18T02:45:07;103153.44;;;18.21
62180;BMP280;48172;53.374;10.722;2022-12-18T02:47:37;103147.22;;;18.17
62180;BMP280;48172;53.374;10.722;2022-12-18T02:50:09;103146.03;;;18.15
62180;BMP280;48172;53.374;10.722;2022-12-18T03:06:35;103163.31;;;17.99
62180;BMP280;48172;53.374;10.722;2022-12-18T03:09:14;103174.50;;;17.98
62180;BMP280;48172;53.374;10.722;2022-12-18T03:11:47;103176.03;;;17.95
62180;BMP280;48172;53.374;10.722;2022-12-18T03:14:34;103175.25;;;17.95
62180;BMP280;48172;53.374;10.722;2022-12-18T03:17:04;103171.75;;;17.91
62180;BMP280;48172;53.374;10.722;2022-12-18T03:19:32;103174.03;;;17.89
62180;BMP280;48172;53.374;10.722;2022-12-18T03:22:02;103164.38;;;17.88
62180;BMP280;48172;53.374;10.722;2022-12-18T03:24:31;103169.38;;;17.86
62180;BMP280;48172;53.374;10.722;2022-12-18T03:27:01;103173.25;;;17.85
62180;BMP280;48172;53.374;10.722;2022-12-18T03:29:34;103167.06;;;17.84
62180;BMP280;48172;53.374;10.722;2022-12-18T03:32:05;103172.44;;;17.81
62180;BMP280;48172;53.374;10.722;2022-12-18T03:34:36;103166.22;;;17.77
62180;BMP280;48172;53.374;10.722;2022-12-18T03:37:05;103165.44;;;17.76
62180;BMP280;48172;53.374;10.722;2022-12-18T03:39:33;103165.00;;;17.74
62180;BMP280;48172;53.374;10.722;2022-12-18T03:42:10;103172.75;;;17.72
62180;BMP280;48172;53.374;10.722;2022-12-18T03:47:26;103161.13;;;17.68
62180;BMP280;48172;53.374;10.722;2022-12-18T03:50:16;103166.88;;;17.66
62180;BMP280;48172;53.374;10.722;2022-12-18T03:55:14;103171.88;;;17.64
62180;BMP280;48172;53.374;10.722;2022-12-18T03:57:42;103179.16;;;17.60
62180;BMP280;48172;53.374;10.722;2022-12-18T04:00:12;103177.22;;;17.57
62180;BMP280;48172;53.374;10.722;2022-12-18T04:02:43;103184.56;;;17.57
62180;BMP280;48172;53.374;10.722;2022-12-18T04:05:11;103183.34;;;17.54
62180;BMP280;48172;53.374;10.722;2022-12-18T04:07:39;103184.53;;;17.53
62180;BMP280;48172;53.374;10.722;2022-12-18T04:10:07;103183.75;;;17.53
62180;BMP280;48172;53.374;10.722;2022-12-18T04:12:38;103189.50;;;17.48
62180;BMP280;48172;53.374;10.722;2022-12-18T04:15:05;103187.94;;;17.47
62180;BMP280;48172;53.374;10.722;2022-12-18T04:17:32;103192.53;;;17.46
62180;BMP280;48172;53.374;10.722;2022-12-18T04:19:58;103188.66;;;17.44
62180;BMP280;48172;53.374;10.722;2022-12-18T04:22:25;103185.19;;;17.43
62180;BMP280;48172;53.374;10.722;2022-12-18T04:24:51;103181.28;;;17.41
62180;BMP280;48172;53.374;10.722;2022-12-18T04:27:18;103168.53;;;17.41
62180;BMP280;48172;53.374;10.722;2022-12-18T04:29:44;103166.59;;;17.38
62180;BMP280;48172;53.374;10.722;2022-12-18T04:32:11;103172.34;;;17.36
62180;BMP280;48172;53.374;10.722;2022-12-18T04:34:37;103177.34;;;17.34
62180;BMP280;48172;53.374;10.722;2022-12-18T04:37:04;103175.03;;;17.33
62180;BMP280;48172;53.374;10.722;2022-12-18T04:39:30;103169.97;;;17.31
62180;BMP280;48172;53.374;10.722;2022-12-18T04:42:00;103163.41;;;17.29
62180;BMP280;48172;53.374;10.722;2022-12-18T04:44:26;103173.78;;;17.27
62180;BMP280;48172;53.374;10.722;2022-12-18T04:46:53;103169.91;;;17.24
62180;BMP280;48172;53.374;10.722;2022-12-18T04:49:19;103167.94;;;17.21
62180;BMP280;48172;53.374;10.722;2022-12-18T04:51:46;103169.84;;;17.21
62180;BMP280;48172;53.374;10.722;2022-12-18T04:54:12;103184.50;;;17.20
62180;BMP280;48172;53.374;10.722;2022-12-18T04:56:39;103183.31;;;17.17
62180;BMP280;48172;53.374;10.722;2022-12-18T04:59:06;103193.72;;;17.15
62180;BMP280;48172;53.374;10.722;2022-12-18T05:01:32;103189.47;;;17.14
62180;BMP280;48172;53.374;10.722;2022-12-18T05:04:02;103182.88;;;17.12
62180;BMP280;48172;53.374;10.722;2022-12-18T05:06:29;103175.13;;;17.10
62180;BMP280;48172;53.374;10.722;2022-12-18T05:08:55;103179.00;;;17.09
62180;BMP280;48172;53.374;10.722;2022-12-18T05:11:22;103175.09;;;17.07
62180;BMP280;48172;53.374;10.722;2022-12-18T05:13:49;103170.44;;;17.03
62180;BMP280;48172;53.374;10.722;2022-12-18T05:16:15;103180.44;;;17.03
62180;BMP280;48172;53.374;10.722;2022-12-18T05:18:42;103183.94;;;17.03
62180;BMP280;48172;53.374;10.722;2022-12-18T05:21:09;103177.69;;;16.99
62180;BMP280;48172;53.374;10.722;2022-12-18T05:23:36;103182.31;;;16.99
62180;BMP280;48172;53.374;10.722;2022-12-18T05:26:05;103174.19;;;16.95
62180;BMP280;48172;53.374;10.722;2022-12-18T05:28:33;103171.06;;;16.93
62180;BMP280;48172;53.374;10.722;2022-12-18T05:31:01;103188.41;;;16.92
62180;BMP280;48172;53.374;10.722;2022-12-18T05:33:31;103202.28;;;16.91
62180;BMP280;48172;53.374;10.722;2022-12-18T05:36:00;103196.44;;;16.89
62180;BMP280;48172;53.374;10.722;2022-12-18T05:38:29;103208.41;;;16.88
62180;BMP280;48172;53.374;10.722;2022-12-18T05:40:56;103206.88;;;16.87
62180;BMP280;48172;53.374;10.722;2022-12-18T05:43:24;103208.34;;;16.84
62180;BMP280;48172;53.374;10.722;2022-12-18T05:45:51;103214.50;;;16.85
62180;BMP280;48172;53.374;10.722;2022-12-18T05:48:18;103214.13;;;16.83
62180;BMP280;48172;53.374;10.722;2022-12-18T05:50:47;103225.72;;;16.83
62180;BMP280;48172;53.374;10.722;2022-12-18T05:53:16;103219.91;;;16.85
62180;BMP280;48172;53.374;10.722;2022-12-18T05:55:43;103223.00;;;16.83
62180;BMP280;48172;53.374;10.722;2022-12-18T05:58:11;103222.25;;;16.83
62180;BMP280;48172;53.374;10.722;2022-12-18T06:00:40;103218.00;;;16.85
62180;BMP280;48172;53.374;10.722;2022-12-18T06:03:09;103217.66;;;16.87
62180;BMP280;48172;53.374;10.722;2022-12-18T06:05:38;103215.75;;;16.87
62180;BMP280;48172;53.374;10.722;2022-12-18T06:08:05;103221.91;;;16.88
62180;BMP280;48172;53.374;10.722;2022-12-18T06:10:32;103229.28;;;16.91
62180;BMP280;48172;53.374;10.722;2022-12-18T06:12:59;103230.84;;;16.92
62180;BMP280;48172;53.374;10.722;2022-12-18T06:15:25;103225.81;;;16.94
62180;BMP280;48172;53.374;10.722;2022-12-18T06:17:51;103222.44;;;16.97
62180;BMP280;48172;53.374;10.722;2022-12-18T06:20:18;103224.75;;;16.98
62180;BMP280;48172;53.374;10.722;2022-12-18T06:22:45;103222.16;;;17.05
62180;BMP280;48172;53.374;10.722;2022-12-18T06:25:12;103222.66;;;17.15
62180;BMP280;48172;53.374;10.722;2022-12-18T06:27:38;103220.41;;;17.20
62180;BMP280;48172;53.374;10.722;2022-12-18T06:30:05;103224.38;;;17.30
62180;BMP280;48172;53.374;10.722;2022-12-18T06:32:32;103229.53;;;17.39
62180;BMP280;48172;53.374;10.722;2022-12-18T06:34:58;103230.81;;;17.48
62180;BMP280;48172;53.374;10.722;2022-12-18T06:37:25;103221.63;;;17.56
62180;BMP280;48172;53.374;10.722;2022-12-18T06:39:53;103220.19;;;17.66
62180;BMP280;48172;53.374;10.722;2022-12-18T06:42:20;103227.63;;;17.76
62180;BMP280;48172;53.374;10.722;2022-12-18T06:44:49;103237.00;;;17.86
62180;BMP280;48172;53.374;10.722;2022-12-18T06:47:16;103246.38;;;17.95
62180;BMP280;48172;53.374;10.722;2022-12-18T06:49:43;103243.75;;;18.06
62180;BMP280;48172;53.374;10.722;2022-12-18T06:52:09;103248.09;;;18.14
62180;BMP280;48172;53.374;10.722;2022-12-18T06:54:36;103254.72;;;18.24
62180;BMP280;48172;53.374;10.722;2022-12-18T06:57:02;103261.38;;;18.33
62180;BMP280;48172;53.374;10.722;2022-12-18T06:59:29;103267.25;;;18.43
62180;BMP280;48172;53.374;10.722;2022-12-18T07:01:55;103269.25;;;18.49
62180;BMP280;48172;53.374;10.722;2022-12-18T07:04:26;103265.06;;;18.59
62180;BMP280;48172;53.374;10.722;2022-12-18T07:06:53;103269.38;;;18.67
62180;BMP280;48172;53.374;10.722;2022-12-18T07:09:19;103270.59;;;18.77
62180;BMP280;48172;53.374;10.722;2022-12-18T07:11:46;103276.06;;;18.84
62180;BMP280;48172;53.374;10.722;2022-12-18T07:14:12;103275.31;;;18.90
62180;BMP280;48172;53.374;10.722;2022-12-18T07:16:39;103279.63;;;18.98
62180;BMP280;48172;53.374;10.722;2022-12-18T07:19:07;103275.03;;;19.06
62180;BMP280;48172;53.374;10.722;2022-12-18T07:21:33;103282.03;;;19.14
62180;BMP280;48172;53.374;10.722;2022-12-18T07:24:00;103262.31;;;19.21
62180;BMP280;48172;53.374;10.722;2022-12-18T07:26:26;103271.66;;;19.27
62180;BMP280;48172;53.374;10.722;2022-12-18T07:28:56;103276.28;;;19.33
62180;BMP280;48172;53.374;10.722;2022-12-18T07:31:24;103267.44;;;19.40
62180;BMP280;48172;53.374;10.722;2022-12-18T07:33:51;103267.84;;;19.46
62180;BMP280;48172;53.374;10.722;2022-12-18T07:36:18;103273.66;;;19.51
62180;BMP280;48172;53.374;10.722;2022-12-18T07:38:47;103275.63;;;19.58
62180;BMP280;48172;53.374;10.722;2022-12-18T07:41:14;103289.59;;;19.63
62180;BMP280;48172;53.374;10.722;2022-12-18T07:43:41;103299.28;;;19.68
62180;BMP280;48172;53.374;10.722;2022-12-18T07:46:10;103302.38;;;19.74
62180;BMP280;48172;53.374;10.722;2022-12-18T07:48:39;103309.38;;;19.78
62180;BMP280;48172;53.374;10.722;2022-12-18T07:51:06;103309.78;;;19.84
62180;BMP280;48172;53.374;10.722;2022-12-18T07:53:34;103312.50;;;19.87
62180;BMP280;48172;53.374;10.722;2022-12-18T07:56:05;103312.13;;;19.92
62180;BMP280;48172;53.374;10.722;2022-12-18T07:58:53;103317.94;;;19.98
62180;BMP280;48172;53.374;10.722;2022-12-18T08:01:19;103307.88;;;20.02
62180;BMP280;48172;53.374;10.722;2022-12-18T08:03:46;103304.41;;;20.05
62180;BMP280;48172;53.374;10.722;2022-12-18T08:06:13;103305.94;;;20.10
62180;BMP280;48172;53.374;10.722;2022-12-18T08:08:40;103309.44;;;20.14
62180;BMP280;48172;53.374;10.722;2022-12-18T08:11:08;103303.25;;;20.20
62180;BMP280;48172;53.374;10.722;2022-12-18T08:13:34;103302.47;;;20.23
62180;BMP280;48172;53.374;10.722;2022-12-18T08:16:05;103308.66;;;20.27
62180;BMP280;48172;53.374;10.722;2022-12-18T08:18:33;103310.22;;;20.32
62180;BMP280;48172;53.374;10.722;2022-12-18T08:21:13;103302.88;;;20.33
62180;BMP280;48172;53.374;10.722;2022-12-18T08:23:39;103298.56;;;20.31
62180;BMP280;48172;53.374;10.722;2022-12-18T08:26:12;103294.72;;;20.29
62180;BMP280;48172;53.374;10.722;2022-12-18T08:28:40;103309.81;;;20.26
62180;BMP280;48172;53.374;10.722;2022-12-18T08:31:07;103293.13;;;20.21
62180;BMP280;48172;53.374;10.722;2022-12-18T08:33:35;103291.22;;;20.14
62180;BMP280;48172;53.374;10.722;2022-12-18T08:36:04;103292.72;;;20.08
62180;BMP280;48172;53.374;10.722;2022-12-18T08:38:32;103289.25;;;20.01
62180;BMP280;48172;53.374;10.722;2022-12-18T08:41:04;103282.66;;;19.91
62180;BMP280;48172;53.374;10.722;2022-12-18T08:43:31;103276.09;;;19.81
62180;BMP280;48172;53.374;10.722;2022-12-18T08:46:17;103275.66;;;19.76
62180;BMP280;48172;53.374;10.722;2022-12-18T08:48:44;103270.97;;;19.65
62180;BMP280;48172;53.374;10.722;2022-12-18T08:51:11;103270.56;;;19.60
62180;BMP280;48172;53.374;10.722;2022-12-18T08:53:38;103266.72;;;19.57
62180;BMP280;48172;53.374;10.722;2022-12-18T08:56:05;103272.13;;;19.54
62180;BMP280;48172;53.374;10.722;2022-12-18T08:58:32;103272.13;;;19.54
62180;BMP280;48172;53.374;10.722;2022-12-18T09:01:03;103272.47;;;19.52
62180;BMP280;48172;53.374;10.722;2022-12-18T09:03:30;103272.91;;;19.54
62180;BMP280;48172;53.374;10.722;2022-12-18T09:05:57;103276.75;;;19.57
62180;BMP280;48172;53.374;10.722;2022-12-18T09:08:24;103275.25;;;19.59
62180;BMP280;48172;53.374;10.722;2022-12-18T09:10:51;103282.25;;;19.64
62180;BMP280;48172;53.374;10.722;2022-12-18T09:13:37;103283.78;;;19.69
62180;BMP280;48172;53.374;10.722;2022-12-18T09:16:05;103283.41;;;19.74
62180;BMP280;48172;53.374;10.722;2022-12-18T09:18:31;103278.75;;;19.78
62180;BMP280;48172;53.374;10.722;2022-12-18T09:20:58;103288.47;;;19.82
62180;BMP280;48172;53.374;10.722;2022-12-18T09:23:24;103285.38;;;19.87
62180;BMP280;48172;53.374;10.722;2022-12-18T09:25:51;103276.47;;;19.90
62180;BMP280;48172;53.374;10.722;2022-12-18T09:28:18;103275.69;;;19.97
62180;BMP280;48172;53.374;10.722;2022-12-18T09:30:47;103271.44;;;20.03
62180;BMP280;48172;53.374;10.722;2022-12-18T09:33:15;103273.72;;;20.08
62180;BMP280;48172;53.374;10.722;2022-12-18T09:35:43;103269.88;;;20.13
62180;BMP280;48172;53.374;10.722;2022-12-18T09:38:16;103270.28;;;20.18
62180;BMP280;48172;53.374;10.722;2022-12-18T09:40:45;103270.66;;;20.24
62180;BMP280;48172;53.374;10.722;2022-12-18T09:43:17;103273.00;;;20.29
62180;BMP280;48172;53.374;10.722;2022-12-18T09:45:49;103278.00;;;20.34
62180;BMP280;48172;53.374;10.722;2022-12-18T09:48:39;103280.72;;;20.38
62180;BMP280;48172;53.374;10.722;2022-12-18T09:51:27;103280.72;;;20.45
62180;BMP280;48172;53.374;10.722;2022-12-18T09:54:03;103273.34;;;20.49
62180;BMP280;48172;53.374;10.722;2022-12-18T09:56:35;103277.22;;;20.51
62180;BMP280;48172;53.374;10.722;2022-12-18T09:59:04;103288.47;;;20.53
62180;BMP280;48172;53.374;10.722;2022-12-18T10:01:32;103290.41;;;20.56
62180;BMP280;48172;53.374;10.722;2022-12-18T10:04:08;103288.06;;;20.55
62180;BMP280;48172;53.374;10.722;2022-12-18T10:06:41;103292.34;;;20.52
62180;BMP280;48172;53.374;10.722;2022-12-18T10:09:28;103291.19;;;20.50
62180;BMP280;48172;53.374;10.722;2022-12-18T10:15:01;103281.13;;;20.43
62180;BMP280;48172;53.374;10.722;2022-12-18T10:20:39;103288.09;;;20.41
62180;BMP280;48172;53.374;10.722;2022-12-18T10:26:03;103297.03;;;20.45
62180;BMP280;48172;53.374;10.722;2022-12-18T10:28:32;103296.25;;;20.48
62180;BMP280;48172;53.374;10.722;2022-12-18T10:30:59;103298.56;;;20.49
62180;BMP280;48172;53.374;10.722;2022-12-18T10:33:29;103298.56;;;20.53
62180;BMP280;48172;53.374;10.722;2022-12-18T10:35:56;103295.84;;;20.56
62180;BMP280;48172;53.374;10.722;2022-12-18T10:38:30;103293.91;;;20.57
62180;BMP280;48172;53.374;10.722;2022-12-18T10:43:43;103293.13;;;20.56
62180;BMP280;48172;53.374;10.722;2022-12-18T10:48:40;103306.34;;;20.47
62180;BMP280;48172;53.374;10.722;2022-12-18T10:51:28;103302.44;;;20.41
62180;BMP280;48172;53.374;10.722;2022-12-18T10:54:18;103296.25;;;20.34
62180;BMP280;48172;53.374;10.722;2022-12-18T10:56:45;103292.75;;;20.26
62180;BMP280;48172;53.374;10.722;2022-12-18T10:59:16;103295.09;;;20.20
62180;BMP280;48172;53.374;10.722;2022-12-18T11:01:55;103290.06;;;20.12
62180;BMP280;48172;53.374;10.722;2022-12-18T11:04:30;103289.25;;;20.04
62180;BMP280;48172;53.374;10.722;2022-12-18T11:07:00;103289.66;;;19.99
62180;BMP280;48172;53.374;10.722;2022-12-18T11:09:32;103285.00;;;19.96
62180;BMP280;48172;53.374;10.722;2022-12-18T11:12:06;103272.19;;;19.93
62180;BMP280;48172;53.374;10.722;2022-12-18T11:17:21;103273.75;;;19.97
62180;BMP280;48172;53.374;10.722;2022-12-18T11:19:58;103273.38;;;20.03
62180;BMP280;48172;53.374;10.722;2022-12-18T11:22:26;103287.31;;;20.08
62180;BMP280;48172;53.374;10.722;2022-12-18T11:25:00;103281.50;;;20.13
62180;BMP280;48172;53.374;10.722;2022-12-18T11:27:56;103282.69;;;20.19
62180;BMP280;48172;53.374;10.722;2022-12-18T11:30:35;103294.69;;;20.25
62180;BMP280;48172;53.374;10.722;2022-12-18T11:33:09;103285.00;;;20.31
62180;BMP280;48172;53.374;10.722;2022-12-18T11:35:47;103277.63;;;20.39
62180;BMP280;48172;53.374;10.722;2022-12-18T11:38:26;103276.84;;;20.46
62180;BMP280;48172;53.374;10.722;2022-12-18T11:43:28;103277.97;;;20.59
62180;BMP280;48172;53.374;10.722;2022-12-18T11:46:09;103276.78;;;20.63
62180;BMP280;48172;53.374;10.722;2022-12-18T11:51:38;103279.88;;;20.76
62180;BMP280;48172;53.374;10.722;2022-12-18T11:54:12;103269.00;;;20.83
62180;BMP280;48172;53.374;10.722;2022-12-18T11:57:37;103267.81;;;20.88
62180;BMP280;48172;53.374;10.722;2022-12-18T12:08:09;103274.72;;;21.07
62180;BMP280;48172;53.374;10.722;2022-12-18T12:13:38;103265.78;;;21.13
62180;BMP280;48172;53.374;10.722;2022-12-18T12:40:47;103207.00;;;21.33
62180;BMP280;48172;53.374;10.722;2022-12-18T12:43:41;103207.00;;;21.37
62180;BMP280;48172;53.374;10.722;2022-12-18T12:46:18;103191.81;;;21.40
62180;BMP280;48172;53.374;10.722;2022-12-18T12:48:56;103190.66;;;21.41
62180;BMP280;48172;53.374;10.722;2022-12-18T12:51:35;103185.56;;;21.43
62180;BMP280;48172;53.374;10.722;2022-12-18T12:54:05;103188.69;;;21.45
62180;BMP280;48172;53.374;10.722;2022-12-18T12:56:40;103188.25;;;21.46
62180;BMP280;48172;53.374;10.722;2022-12-18T12:59:20;103186.31;;;21.47
62180;BMP280;48172;53.374;10.722;2022-12-18T13:04:50;103178.88;;;21.54
62180;BMP280;48172;53.374;10.722;2022-12-18T13:07:26;103169.56;;;21.55
62180;BMP280;48172;53.374;10.722;2022-12-18T13:15:42;103143.88;;;21.60
62180;BMP280;48172;53.374;10.722;2022-12-18T13:18:20;103129.09;;;21.61
62180;BMP280;48172;53.374;10.722;2022-12-18T13:21:02;103126.34;;;21.64
62180;BMP280;48172;53.374;10.722;2022-12-18T13:23:35;103123.19;;;21.66
62180;BMP280;48172;53.374;10.722;2022-12-18T13:28:56;103130.16;;;21.71
62180;BMP280;48172;53.374;10.722;2022-12-18T13:36:54;103138.66;;;21.76
62180;BMP280;48172;53.374;10.722;2022-12-18T13:39:24;103143.28;;;21.79
62180;BMP280;48172;53.374;10.722;2022-12-18T13:44:41;103145.25;;;21.79
62180;BMP280;48172;53.374;10.722;2022-12-18T13:47:37;103140.19;;;21.77
62180;BMP280;48172;53.374;10.722;2022-12-18T13:50:21;103144.13;;;21.73
62180;BMP280;48172;53.374;10.722;2022-12-18T13:53:00;103144.56;;;21.67
62180;BMP280;48172;53.374;10.722;2022-12-18T13:55:27;103149.66;;;21.62
62180;BMP280;48172;53.374;10.722;2022-12-18T13:58:04;103140.81;;;21.54
62180;BMP280;48172;53.374;10.722;2022-12-18T14:00:31;103129.97;;;21.47
62180;BMP280;48172;53.374;10.722;2022-12-18T14:02:59;103127.69;;;21.39
62180;BMP280;48172;53.374;10.722;2022-12-18T14:05:29;103133.22;;;21.31
62180;BMP280;48172;53.374;10.722;2022-12-18T14:08:12;103128.59;;;21.25
62180;BMP280;48172;53.374;10.722;2022-12-18T14:10:41;103128.25;;;21.19
62180;BMP280;48172;53.374;10.722;2022-12-18T14:13:27;103139.53;;;21.14
62180;BMP280;48172;53.374;10.722;2022-12-18T14:15:55;103143.03;;;21.15
62180;BMP280;48172;53.374;10.722;2022-12-18T14:21:03;103133.72;;;21.16
62180;BMP280;48172;53.374;10.722;2022-12-18T14:23:41;103125.16;;;21.17
62180;BMP280;48172;53.374;10.722;2022-12-18T14:26:28;103127.84;;;21.21
62180;BMP280;48172;53.374;10.722;2022-12-18T14:28:56;103133.66;;;21.23
62180;BMP280;48172;53.374;10.722;2022-12-18T14:31:30;103138.28;;;21.26
62180;BMP280;48172;53.374;10.722;2022-12-18T14:33:57;103137.91;;;21.27
62180;BMP280;48172;53.374;10.722;2022-12-18T14:36:26;103127.38;;;21.33
62180;BMP280;48172;53.374;10.722;2022-12-18T14:38:57;103127.34;;;21.37
62180;BMP280;48172;53.374;10.722;2022-12-18T14:41:26;103119.94;;;21.41
62180;BMP280;48172;53.374;10.722;2022-12-18T14:43:53;103118.75;;;21.42
62180;BMP280;48172;53.374;10.722;2022-12-18T14:46:35;103112.13;;;21.43
62180;BMP280;48172;53.374;10.722;2022-12-18T14:49:28;103107.13;;;21.41
62180;BMP280;48172;53.374;10.722;2022-12-18T14:51:57;103112.56;;;21.38
62180;BMP280;48172;53.374;10.722;2022-12-18T14:54:28;103116.50;;;21.33
62180;BMP280;48172;53.374;10.722;2022-12-18T14:57:25;103121.19;;;21.29
62180;BMP280;48172;53.374;10.722;2022-12-18T15:00:04;103117.72;;;21.25
62180;BMP280;48172;53.374;10.722;2022-12-18T15:02:34;103110.38;;;21.22
62180;BMP280;48172;53.374;10.722;2022-12-18T15:05:16;103107.66;;;21.18
62180;BMP280;48172;53.374;10.722;2022-12-18T15:07:54;103105.72;;;21.19
62180;BMP280;48172;53.374;10.722;2022-12-18T15:10:23;103106.50;;;21.19
62180;BMP280;48172;53.374;10.722;2022-12-18T15:23:16;103097.44;;;21.37
62180;BMP280;48172;53.374;10.722;2022-12-18T15:25:44;103091.19;;;21.40
62180;BMP280;48172;53.374;10.722;2022-12-18T15:28:21;103094.63;;;21.44
62180;BMP280;48172;53.374;10.722;2022-12-18T15:31:22;103093.44;;;21.48
62180;BMP280;48172;53.374;10.722;2022-12-18T15:36:19;103081.72;;;21.55
62180;BMP280;48172;53.374;10.722;2022-12-18T15:38:54;103077.41;;;21.57
62180;BMP280;48172;53.374;10.722;2022-12-18T15:41:35;103063.78;;;21.61
62180;BMP280;48172;53.374;10.722;2022-12-18T15:44:15;103057.13;;;21.65
62180;BMP280;48172;53.374;10.722;2022-12-18T15:46:47;103050.09;;;21.68
62180;BMP280;48172;53.374;10.722;2022-12-18T15:49:13;103054.31;;;21.73
62180;BMP280;48172;53.374;10.722;2022-12-18T15:51:40;103051.56;;;21.76
62180;BMP280;48172;53.374;10.722;2022-12-18T15:54:11;103048.03;;;21.79
62180;BMP280;48172;53.374;10.722;2022-12-18T15:56:39;103042.97;;;21.81
62180;BMP280;48172;53.374;10.722;2022-12-18T15:59:24;103042.50;;;21.86
62180;BMP280;48172;53.374;10.722;2022-12-18T16:01:51;103045.63;;;21.88
62180;BMP280;48172;53.374;10.722;2022-12-18T16:04:22;103042.84;;;21.92
62180;BMP280;48172;53.374;10.722;2022-12-18T16:06:49;103040.47;;;21.94
62180;BMP280;48172;53.374;10.722;2022-12-18T16:09:36;103033.81;;;21.98
62180;BMP280;48172;53.374;10.722;2022-12-18T16:12:03;103024.47;;;21.99
62180;BMP280;48172;53.374;10.722;2022-12-18T16:14:31;103009.28;;;22.02
62180;BMP280;48172;53.374;10.722;2022-12-18T16:17:04;103003.00;;;22.05